createdAt,value
2024-01-22T00:01:36.723Z,1.69
2024-01-22T00:05:02.864Z,1.69
2024-01-22T00:08:29.008Z,1.69
2024-01-22T00:11:55.268Z,1.69
2024-01-22T00:15:21.316Z,1.70
2024-01-22T00:18:48.261Z,1.71
2024-01-22T00:22:14.139Z,1.73
2024-01-22T00:25:40.337Z,1.72
2024-01-22T00:29:06.368Z,1.72
2024-01-22T00:32:32.622Z,1.71
2024-01-22T00:35:59.143Z,1.70
2024-01-22T00:39:25.882Z,1.71
2024-01-22T00:42:57.118Z,1.71
2024-01-22T00:46:23.522Z,1.68
2024-01-22T00:49:49.901Z,1.68
2024-01-22T00:53:16.002Z,1.69
2024-01-22T00:56:42.273Z,1.70
2024-01-22T01:00:12.456Z,1.69
2024-01-22T01:03:38.435Z,1.69
2024-01-22T01:07:04.108Z,1.68
2024-01-22T01:10:29.951Z,1.67
2024-01-22T01:13:56.223Z,1.68
2024-01-22T01:17:24.456Z,1.67
2024-01-22T01:20:50.552Z,1.65
2024-01-22T01:24:18.411Z,1.67
2024-01-22T01:27:44.313Z,1.67
2024-01-22T01:31:10.311Z,1.67
2024-01-22T01:34:36.501Z,1.66
2024-01-22T01:38:02.370Z,1.68
2024-01-22T01:41:28.506Z,1.68
2024-01-22T01:44:55.476Z,1.69
2024-01-22T01:48:21.709Z,1.69
2024-01-22T01:51:48.147Z,1.70
2024-01-22T01:55:14.783Z,1.72
2024-01-22T01:58:41.116Z,1.72
2024-01-22T02:02:07.855Z,1.71
2024-01-22T02:05:33.976Z,1.73
2024-01-22T02:09:00.339Z,1.74
2024-01-22T02:12:26.566Z,1.75
2024-01-22T02:15:52.287Z,1.78
2024-01-22T02:19:19.094Z,1.79
2024-01-22T02:22:45.480Z,1.81
2024-01-22T02:26:12.546Z,1.82
2024-01-22T02:29:38.485Z,1.84
2024-01-22T02:33:05.509Z,1.87
2024-01-22T02:36:31.411Z,1.89
2024-01-22T02:39:57.923Z,1.90
2024-01-22T02:43:24.526Z,1.93
2024-01-22T02:46:50.597Z,1.95
2024-01-22T02:50:16.788Z,1.97
2024-01-22T02:53:43.031Z,1.98
2024-01-22T02:57:11.576Z,2.01
2024-01-22T03:00:38.034Z,2.02
2024-01-22T03:04:04.146Z,2.02
2024-01-22T03:07:31.123Z,2.01
2024-01-22T03:10:58.298Z,2.00
2024-01-22T03:14:24.046Z,2.00
2024-01-22T03:17:50.278Z,2.00
2024-01-22T03:21:17.191Z,1.99
2024-01-22T03:24:47.740Z,1.98
2024-01-22T03:28:13.810Z,1.97
2024-01-22T03:31:40.078Z,1.98
2024-01-22T03:35:06.639Z,1.97
2024-01-22T03:38:32.266Z,1.99
2024-01-22T03:41:58.035Z,2.00
2024-01-22T03:45:25.814Z,2.01
2024-01-22T03:48:52.142Z,2.01
2024-01-22T03:52:18.037Z,2.00
2024-01-22T03:55:44.472Z,2.02
2024-01-22T03:59:12.038Z,2.03
2024-01-22T04:02:38.109Z,2.04
2024-01-22T04:06:05.354Z,2.05
2024-01-22T04:09:31.362Z,2.07
2024-01-22T04:12:58.269Z,2.10
2024-01-22T04:16:24.347Z,2.11
2024-01-22T04:19:50.932Z,2.09
2024-01-22T04:23:16.913Z,2.08
2024-01-22T04:26:42.432Z,2.07
2024-01-22T04:30:10.164Z,2.07
2024-01-22T04:33:37.149Z,2.04
2024-01-22T04:37:02.805Z,2.00
2024-01-22T04:40:29.079Z,1.99
2024-01-22T04:43:54.834Z,1.98
2024-01-22T04:47:21.044Z,1.98
2024-01-22T04:50:47.455Z,1.97
2024-01-22T04:54:14.101Z,1.97
2024-01-22T04:57:39.869Z,1.97
2024-01-22T05:01:06.002Z,1.97
2024-01-22T05:04:31.994Z,1.98
2024-01-22T05:07:57.860Z,2.01
2024-01-22T05:11:23.722Z,2.03
2024-01-22T05:14:49.850Z,2.05
2024-01-22T05:18:16.831Z,2.08
2024-01-22T05:21:42.907Z,2.12
2024-01-22T05:25:11.719Z,2.18
2024-01-22T05:28:38.239Z,2.23
2024-01-22T05:32:03.963Z,2.28
2024-01-22T05:35:29.885Z,2.33
2024-01-22T05:38:56.051Z,2.37
2024-01-22T05:42:21.988Z,2.41
2024-01-22T05:45:48.290Z,2.43
2024-01-22T05:49:14.190Z,2.44
2024-01-22T05:52:40.553Z,2.46
2024-01-22T05:56:07.993Z,2.47
2024-01-22T05:59:34.304Z,2.48
2024-01-22T06:03:02.267Z,2.49
2024-01-22T06:06:28.879Z,2.51
2024-01-22T06:10:01.775Z,2.52
2024-01-22T06:13:34.521Z,2.57
2024-01-22T06:17:05.455Z,2.60
2024-01-22T06:20:36.218Z,2.63
2024-01-22T06:24:03.772Z,2.67
2024-01-22T06:27:30.249Z,2.69
2024-01-22T06:30:56.401Z,2.72
2024-01-22T06:34:25.367Z,2.76
2024-01-22T06:37:51.812Z,2.80
2024-01-22T06:41:20.630Z,2.86
2024-01-22T06:44:46.533Z,2.90
2024-01-22T06:48:13.666Z,2.94
2024-01-22T06:51:45.969Z,2.97
2024-01-22T06:55:14.362Z,3.01
2024-01-22T06:58:40.456Z,3.04
2024-01-22T07:02:07.547Z,3.06
2024-01-22T07:05:34.744Z,3.09
2024-01-22T07:09:01.248Z,3.11
2024-01-22T07:12:31.803Z,3.15
2024-01-22T07:15:58.426Z,3.17
2024-01-22T07:19:24.770Z,3.20
2024-01-22T07:22:51.422Z,3.25
2024-01-22T07:26:17.617Z,3.28
2024-01-22T07:29:43.817Z,3.32
2024-01-22T07:33:10.148Z,3.34
2024-01-22T07:36:36.224Z,3.35
2024-01-22T07:40:02.813Z,3.36
2024-01-22T07:43:29.041Z,3.37
2024-01-22T07:46:57.524Z,3.37
2024-01-22T07:50:23.656Z,3.36
2024-01-22T07:53:49.697Z,3.37
2024-01-22T07:57:16.308Z,3.39
2024-01-22T08:00:42.640Z,3.41
2024-01-22T08:04:09.129Z,3.43
2024-01-22T08:07:37.944Z,3.45
2024-01-22T08:11:06.997Z,3.47
2024-01-22T08:14:34.573Z,3.48
2024-01-22T08:18:00.569Z,3.48
2024-01-22T08:21:26.485Z,3.50
2024-01-22T08:24:53.579Z,3.52
2024-01-22T08:28:19.706Z,3.54
2024-01-22T08:31:46.252Z,3.56
2024-01-22T08:35:12.919Z,3.57
2024-01-22T08:38:39.162Z,3.60
2024-01-22T08:42:05.205Z,3.63
2024-01-22T08:45:38.056Z,3.66
2024-01-22T08:49:04.490Z,3.70
2024-01-22T08:52:30.422Z,3.74
2024-01-22T08:55:59.151Z,3.78
2024-01-22T08:59:25.362Z,3.83
2024-01-22T09:02:52.594Z,3.87
2024-01-22T09:06:19.728Z,3.90
2024-01-22T09:09:46.245Z,3.91
2024-01-22T09:13:15.765Z,3.91
2024-01-22T09:16:42.075Z,3.92
2024-01-22T09:20:10.370Z,3.92
2024-01-22T09:23:39.687Z,3.93
2024-01-22T09:27:06.732Z,3.97
2024-01-22T09:30:35.364Z,4.00
2024-01-22T09:34:01.330Z,4.04
2024-01-22T09:37:27.659Z,4.07
2024-01-22T09:40:54.599Z,4.13
2024-01-22T09:44:21.314Z,4.17
2024-01-22T09:47:49.919Z,4.21
2024-01-22T09:51:17.161Z,4.25
2024-01-22T09:54:43.656Z,4.29
2024-01-22T09:58:16.050Z,4.32
2024-01-22T10:01:43.402Z,4.35
2024-01-22T10:05:11.160Z,4.37
2024-01-22T10:08:37.503Z,4.41
2024-01-22T10:12:04.187Z,4.42
2024-01-22T10:15:31.043Z,4.43
2024-01-22T10:19:05.913Z,4.46
2024-01-22T10:22:31.870Z,4.50
2024-01-22T10:26:10.826Z,4.54
2024-01-22T10:29:36.829Z,4.57
2024-01-22T10:33:13.669Z,4.63
2024-01-22T10:36:39.396Z,4.66
2024-01-22T10:40:10.997Z,4.69
2024-01-22T10:43:39.769Z,4.71
2024-01-22T10:47:06.950Z,4.72
2024-01-22T10:50:34.269Z,4.72
2024-01-22T10:54:00.571Z,4.74
2024-01-22T10:57:39.025Z,4.75
2024-01-22T11:01:11.435Z,4.77
2024-01-22T11:04:45.617Z,4.81
2024-01-22T11:08:14.108Z,4.87
2024-01-22T11:11:44.529Z,4.93
2024-01-22T11:15:12.059Z,4.99
2024-01-22T11:18:39.076Z,5.03
2024-01-22T11:22:10.410Z,5.05
2024-01-22T11:25:36.845Z,5.07
2024-01-22T11:29:15.310Z,5.06
2024-01-22T11:32:45.012Z,5.05
2024-01-22T11:36:12.213Z,5.04
2024-01-22T11:39:48.642Z,5.01
2024-01-22T11:43:15.613Z,4.97
2024-01-22T11:46:42.097Z,4.94
2024-01-22T11:50:09.493Z,4.91
2024-01-22T11:53:52.325Z,4.86
2024-01-22T11:57:20.259Z,4.83
2024-01-22T12:00:46.117Z,4.82
2024-01-22T12:07:43.643Z,4.83
2024-01-22T12:11:15.337Z,4.85
2024-01-22T12:14:41.350Z,4.86
2024-01-22T12:18:09.008Z,4.87
2024-01-22T12:21:35.124Z,4.87
2024-01-22T12:25:11.649Z,4.87
2024-01-22T12:28:37.880Z,4.86
2024-01-22T12:32:07.514Z,4.84
2024-01-22T12:35:33.679Z,4.83
2024-01-22T12:39:03.119Z,4.81
2024-01-22T12:42:29.068Z,4.80
2024-01-22T12:46:06.959Z,4.80
2024-01-22T12:49:33.805Z,4.82
2024-01-22T12:53:00.278Z,4.84
2024-01-22T12:56:26.577Z,4.88
2024-01-22T12:59:52.971Z,4.91
2024-01-22T13:03:19.880Z,4.94
2024-01-22T13:06:47.377Z,4.96
2024-01-22T13:10:14.381Z,4.98
2024-01-22T13:13:40.460Z,5.00
2024-01-22T13:17:09.804Z,5.03
2024-01-22T13:20:37.167Z,5.05
2024-01-22T13:24:03.263Z,5.08
2024-01-22T13:27:29.468Z,5.13
2024-01-22T13:30:56.048Z,5.17
2024-01-22T13:34:22.345Z,5.22
2024-01-22T13:37:48.873Z,5.26
2024-01-22T13:41:15.735Z,5.29
2024-01-22T13:44:41.541Z,5.30
2024-01-22T13:48:11.607Z,5.31
2024-01-22T13:51:38.197Z,5.31
2024-01-22T13:55:05.026Z,5.29
2024-01-22T13:58:32.422Z,5.27
2024-01-22T14:01:59.589Z,5.29
2024-01-22T14:05:26.340Z,5.29
2024-01-22T14:08:51.963Z,5.31
2024-01-22T14:12:18.047Z,5.33
2024-01-22T14:15:45.122Z,5.32
2024-01-22T14:19:11.748Z,5.32
2024-01-22T14:22:40.177Z,5.31
2024-01-22T14:26:09.088Z,5.29
2024-01-22T14:29:35.286Z,5.26
2024-01-22T14:33:01.762Z,5.24
2024-01-22T14:36:27.921Z,5.23
2024-01-22T14:39:54.207Z,5.20
2024-01-22T14:43:20.206Z,5.18
2024-01-22T14:46:48.105Z,5.18
2024-01-22T14:50:16.782Z,5.17
2024-01-22T14:53:42.952Z,5.15
2024-01-22T14:57:09.929Z,5.14
2024-01-22T15:00:36.634Z,5.11
2024-01-22T15:04:04.828Z,5.10
2024-01-22T15:07:30.526Z,5.09
2024-01-22T15:10:56.362Z,5.11
2024-01-22T15:14:23.666Z,5.12
2024-01-22T15:17:49.887Z,5.10
2024-01-22T15:21:16.396Z,5.09
2024-01-22T15:24:42.733Z,5.06
2024-01-22T15:28:09.949Z,5.02
2024-01-22T15:31:38.502Z,4.98
2024-01-22T15:35:07.234Z,4.98
2024-01-22T15:38:34.626Z,4.98
2024-01-22T15:42:02.243Z,4.98
2024-01-22T15:45:28.677Z,4.99
2024-01-22T15:48:55.282Z,5.01
2024-01-22T15:52:21.718Z,5.03
2024-01-22T15:55:47.962Z,5.03
2024-01-22T15:59:15.221Z,5.03
2024-01-22T16:02:41.299Z,5.01
2024-01-22T16:06:07.915Z,5.01
2024-01-22T16:09:34.596Z,5.01
2024-01-22T16:13:01.756Z,5.02
2024-01-22T16:16:28.131Z,5.04
2024-01-22T16:19:54.114Z,5.07
2024-01-22T16:23:20.167Z,5.12
2024-01-22T16:26:46.773Z,5.15
2024-01-22T16:30:15.506Z,5.16
2024-01-22T16:33:42.108Z,5.16
2024-01-22T16:37:11.181Z,5.16
2024-01-22T16:40:37.525Z,5.14
2024-01-22T16:44:04.270Z,5.12
2024-01-22T16:47:30.456Z,5.11
2024-01-22T16:50:56.747Z,5.10
2024-01-22T16:54:22.703Z,5.10
2024-01-22T16:57:49.642Z,5.13
2024-01-22T17:01:17.576Z,5.17
2024-01-22T17:04:43.710Z,5.20
2024-01-22T17:08:10.540Z,5.21
2024-01-22T17:11:36.814Z,5.23
2024-01-22T17:15:02.948Z,5.25
2024-01-22T17:18:28.968Z,5.25
2024-01-22T17:21:54.996Z,5.24
2024-01-22T17:25:21.333Z,5.24
2024-01-22T17:28:49.109Z,5.24
2024-01-22T17:32:15.293Z,5.25
2024-01-22T17:35:41.029Z,5.28
2024-01-22T17:39:08.058Z,5.32
2024-01-22T17:42:34.146Z,5.36
2024-01-22T17:46:00.304Z,5.39
2024-01-22T17:49:27.037Z,5.43
2024-01-22T17:52:53.058Z,5.43
2024-01-22T17:56:19.115Z,5.40
2024-01-22T17:59:45.719Z,5.37
2024-01-22T18:03:12.417Z,5.34
2024-01-22T18:06:38.230Z,5.33
2024-01-22T18:10:05.493Z,5.32
2024-01-22T18:13:31.643Z,5.31
2024-01-22T18:16:57.215Z,5.30
2024-01-22T18:20:23.346Z,5.30
2024-01-22T18:23:49.510Z,5.28
2024-01-22T18:27:15.378Z,5.26
2024-01-22T18:30:41.989Z,5.27
2024-01-22T18:34:08.303Z,5.25
2024-01-22T18:37:35.043Z,5.24
2024-01-22T18:41:00.865Z,5.24
2024-01-22T18:44:26.582Z,5.24
2024-01-22T18:47:53.039Z,5.24
2024-01-22T18:51:18.936Z,5.25
2024-01-22T18:54:45.331Z,5.27
2024-01-22T18:58:11.476Z,5.28
2024-01-22T19:01:37.555Z,5.31
2024-01-22T19:05:05.708Z,5.35
2024-01-22T19:08:32.117Z,5.39
2024-01-22T19:11:58.542Z,5.38
2024-01-22T19:15:24.710Z,5.36
2024-01-22T19:18:51.218Z,5.33
2024-01-22T19:22:18.038Z,5.30
2024-01-22T19:25:44.678Z,5.26
2024-01-22T19:29:10.711Z,5.24
2024-01-22T19:32:37.310Z,5.20
2024-01-22T19:36:03.435Z,5.18
2024-01-22T19:39:29.557Z,5.18
2024-01-22T19:42:56.109Z,5.19
2024-01-22T19:46:21.798Z,5.21
2024-01-22T19:49:47.958Z,5.23
2024-01-22T19:53:14.322Z,5.25
2024-01-22T19:56:46.576Z,5.27
2024-01-22T20:00:14.891Z,5.27
2024-01-22T20:03:40.963Z,5.25
2024-01-22T20:07:11.174Z,5.22
2024-01-22T20:10:37.421Z,5.20
2024-01-22T20:14:03.381Z,5.18
2024-01-22T20:17:29.488Z,5.15
2024-01-22T20:20:55.923Z,5.12
2024-01-22T20:24:22.151Z,5.11
2024-01-22T20:27:47.988Z,5.08
2024-01-22T20:31:13.771Z,5.08
2024-01-22T20:34:40.082Z,5.07
2024-01-22T20:38:07.045Z,5.07
2024-01-22T20:41:33.119Z,5.10
2024-01-22T20:44:59.231Z,5.14
2024-01-22T20:48:26.059Z,5.16
2024-01-22T20:51:52.273Z,5.17
2024-01-22T20:55:23.497Z,5.18
2024-01-22T20:58:49.648Z,5.21
2024-01-22T21:02:19.161Z,5.23
2024-01-22T21:05:45.543Z,5.25
2024-01-22T21:09:13.398Z,5.25
2024-01-22T21:12:40.075Z,5.27
2024-01-22T21:16:06.943Z,5.31
2024-01-22T21:19:34.157Z,5.33
2024-01-22T21:23:00.741Z,5.35
2024-01-22T21:26:27.278Z,5.35
2024-01-22T21:29:53.328Z,5.34
2024-01-22T21:33:22.358Z,5.34
2024-01-22T21:36:50.190Z,5.36
2024-01-22T21:40:17.994Z,5.32
2024-01-22T21:43:44.399Z,5.28
2024-01-22T21:47:11.172Z,5.24
2024-01-22T21:50:37.279Z,5.24
2024-01-22T21:54:03.031Z,5.24
2024-01-22T21:57:30.508Z,5.27
2024-01-22T22:00:56.948Z,5.30
2024-01-22T22:04:22.900Z,5.34
2024-01-22T22:07:50.419Z,5.39
2024-01-22T22:11:16.898Z,5.44
2024-01-22T22:14:43.583Z,5.47
2024-01-22T22:18:11.010Z,5.52
2024-01-22T22:21:48.762Z,5.57
2024-01-22T22:25:15.107Z,5.59
2024-01-22T22:28:41.021Z,5.62
2024-01-22T22:32:12.548Z,5.66
2024-01-22T22:35:42.743Z,5.68
2024-01-22T22:39:15.329Z,5.71
2024-01-22T22:42:42.251Z,5.74
2024-01-22T22:46:10.119Z,5.78
2024-01-22T22:49:37.545Z,5.80
2024-01-22T22:53:04.035Z,5.80
2024-01-22T22:56:30.374Z,5.79
2024-01-22T22:59:59.888Z,5.79
2024-01-22T23:03:27.049Z,5.78
2024-01-22T23:06:53.652Z,5.77
2024-01-22T23:10:19.740Z,5.75
2024-01-22T23:13:46.137Z,5.76
2024-01-22T23:17:12.328Z,5.76
2024-01-22T23:20:38.129Z,5.76
2024-01-22T23:24:04.611Z,5.76
2024-01-22T23:27:32.143Z,5.77
2024-01-22T23:31:00.710Z,5.75
2024-01-22T23:34:29.123Z,5.73
2024-01-22T23:38:00.134Z,5.72
2024-01-22T23:41:26.223Z,5.73
2024-01-22T23:44:54.553Z,5.74
2024-01-22T23:48:22.833Z,5.77
2024-01-22T23:51:49.165Z,5.80
2024-01-22T23:55:16.155Z,5.79
2024-01-22T23:58:42.013Z,5.77
